Time,TemperatureF,DewpointF,PressureIn,WindDirection,WindDirectionDegrees,WindSpeedMPH,WindSpeedGustMPH,Humidity,HourlyPrecipIn,Conditions,Clouds,dailyrainin,SoftwareType,DateUTC
2017-10-18 00:03:00,51.3,40.3,30.24,SSW,195,0.0,0.0,66,0.00,,---,0.00,VWS V15.00,2017-10-18 05:03:00,
2017-10-18 00:08:00,51.1,40.1,30.24,SSW,204,0.0,0.0,66,0.00,,---,0.00,VWS V15.00,2017-10-18 05:08:00,
2017-10-18 00:13:00,51.1,40.1,30.24,SSW,199,0.0,0.0,66,0.00,,---,0.00,VWS V15.00,2017-10-18 05:13:00,
2017-10-18 00:18:00,51.3,40.3,30.24,SSW,202,0.0,0.0,66,0.00,,---,0.00,VWS V15.00,2017-10-18 05:18:00,
2017-10-18 00:23:00,51.3,40.3,30.24,SSW,200,0.0,0.0,66,0.00,,---,0.00,VWS V15.00,2017-10-18 05:23:00,
2017-10-18 00:28:00,51.1,40.1,30.24,SSW,195,0.0,0.0,66,0.00,,---,0.00,VWS V15.00,2017-10-18 05:28:00,
2017-10-18 00:33:00,51.3,40.3,30.24,SSW,205,0.0,0.0,66,0.00,,---,0.00,VWS V15.00,2017-10-18 05:33:00,
2017-10-18 00:38:00,51.3,40.3,30.24,SSW,197,0.0,0.0,66,0.00,,---,0.00,VWS V15.00,2017-10-18 05:38:00,
2017-10-18 00:43:00,51.3,40.3,30.24,SSW,204,0.0,0.0,66,0.00,,---,0.00,VWS V15.00,2017-10-18 05:43:00,
2017-10-18 00:48:00,51.3,40.3,30.24,SSW,197,0.0,0.0,66,0.00,,---,0.00,VWS V15.00,2017-10-18 05:48:00,
2017-10-18 00:53:00,51.1,40.1,30.24,SSW,203,0.0,0.0,66,0.00,,---,0.00,VWS V15.00,2017-10-18 05:53:00,
2017-10-18 00:58:00,51.3,40.3,30.24,SSW,201,0.0,0.0,66,0.00,,---,0.00,VWS V15.00,2017-10-18 05:58:00,
2017-10-18 01:03:00,51.4,40.5,30.24,SW,235,0.0,0.0,66,0.00,,---,0.00,VWS V15.00,2017-10-18 06:03:00,
2017-10-18 01:08:00,51.3,40.3,30.24,SSW,209,0.0,0.0,66,0.00,,---,0.00,VWS V15.00,2017-10-18 06:08:00,
2017-10-18 01:13:00,51.3,40.3,30.24,SSW,196,0.0,2.7,66,0.00,,---,0.00,VWS V15.00,2017-10-18 06:13:00,
2017-10-18 01:18:00,51.3,40.3,30.24,SSW,196,0.0,0.0,66,0.00,,---,0.00,VWS V15.00,2017-10-18 06:18:00,
2017-10-18 01:23:00,51.4,40.5,30.24,SSW,197,0.0,0.0,66,0.00,,---,0.00,VWS V15.00,2017-10-18 06:23:00,
2017-10-18 01:28:00,51.4,40.5,30.24,SSW,193,0.0,0.0,66,0.00,,---,0.00,VWS V15.00,2017-10-18 06:28:00,
2017-10-18 01:33:00,51.4,40.5,30.24,SSW,203,0.0,0.0,66,0.00,,---,0.00,VWS V15.00,2017-10-18 06:33:00,
2017-10-18 01:38:00,51.4,40.5,30.24,SSW,193,0.0,0.0,66,0.00,,---,0.00,VWS V15.00,2017-10-18 06:38:00,
2017-10-18 01:43:00,51.3,40.3,30.24,South,191,0.0,0.0,66,0.00,,---,0.00,VWS V15.00,2017-10-18 06:43:00,
2017-10-18 01:48:00,51.1,40.1,30.24,South,191,0.0,0.0,66,0.00,,---,0.00,VWS V15.00,2017-10-18 06:48:00,
2017-10-18 01:53:00,50.7,39.8,30.24,South,178,0.0,0.0,66,0.00,,---,0.00,VWS V15.00,2017-10-18 06:53:00,
2017-10-18 01:58:00,50.2,39.3,30.24,South,179,0.0,0.0,66,0.00,,---,0.00,VWS V15.00,2017-10-18 06:58:00,
2017-10-18 02:03:00,50.0,39.1,30.24,SSE,153,0.0,0.0,66,0.00,,---,0.00,VWS V15.00,2017-10-18 07:03:00,
2017-10-18 02:16:00,49.1,38.2,30.24,SE,143,0.0,0.0,66,0.00,,---,0.00,VWS V15.00,2017-10-18 07:16:00,
2017-10-18 02:21:00,48.2,37.4,30.24,SE,143,0.0,0.0,66,0.00,,---,0.00,VWS V15.00,2017-10-18 07:21:00,
2017-10-18 02:26:00,47.5,37.1,30.24,SE,143,0.0,0.0,67,0.00,,---,0.00,VWS V15.00,2017-10-18 07:26:00,
2017-10-18 02:31:00,46.9,36.6,30.24,SE,143,0.0,0.0,67,0.00,,---,0.00,VWS V15.00,2017-10-18 07:31:00,
2017-10-18 02:36:00,46.4,36.0,30.24,SE,143,0.0,0.0,67,0.00,,---,0.00,VWS V15.00,2017-10-18 07:36:00,
2017-10-18 02:41:00,46.0,35.7,30.24,SE,143,0.0,0.0,67,0.00,,---,0.00,VWS V15.00,2017-10-18 07:41:00,
2017-10-18 02:46:00,45.5,35.2,30.24,SE,143,0.0,0.0,67,0.00,,---,0.00,VWS V15.00,2017-10-18 07:46:00,
2017-10-18 02:51:00,45.1,34.8,30.24,SE,143,0.0,0.0,67,0.00,,---,0.00,VWS V15.00,2017-10-18 07:51:00,
2017-10-18 02:56:00,44.8,34.5,30.24,SE,143,0.0,0.0,67,0.00,,---,0.00,VWS V15.00,2017-10-18 07:56:00,
2017-10-18 03:01:00,44.6,34.3,30.24,SE,143,0.0,0.0,67,0.00,,---,0.00,VWS V15.00,2017-10-18 08:01:00,
2017-10-18 03:06:00,44.2,34.4,30.24,SE,143,0.0,0.0,68,0.00,,---,0.00,VWS V15.00,2017-10-18 08:06:00,
2017-10-18 03:11:00,44.2,34.4,30.24,SE,143,0.0,0.0,68,0.00,,---,0.00,VWS V15.00,2017-10-18 08:11:00,
2017-10-18 03:16:00,44.2,34.4,30.24,SE,143,0.0,0.0,68,0.00,,---,0.00,VWS V15.00,2017-10-18 08:16:00,